sensor_id;sensor_type;location;lat;lon;timestamp;pressure;altitude;pressure_sealevel;temperature;humidity
72116;BME280;59991;52.140;5.428;2023-05-07T00:00:11;101681.38;;;14.83;96.42
72116;BME280;59991;52.140;5.428;2023-05-07T00:00:46;101672.78;;;14.81;95.76
72116;BME280;59991;52.140;5.428;2023-05-07T00:01:18;101675.50;;;14.81;95.08
72116;BME280;59991;52.140;5.428;2023-05-07T00:01:50;101674.72;;;14.80;94.92
72116;BME280;59991;52.140;5.428;2023-05-07T00:02:22;101677.47;;;14.80;95.71
72116;BME280;59991;52.140;5.428;2023-05-07T00:02:54;101676.31;;;14.81;96.08
72116;BME280;59991;52.140;5.428;2023-05-07T00:03:25;101674.72;;;14.80;95.46
72116;BME280;59991;52.140;5.428;2023-05-07T00:03:58;101680.22;;;14.80;95.41
72116;BME280;59991;52.140;5.428;2023-05-07T00:04:29;101672.78;;;14.81;95.64
72116;BME280;59991;52.140;5.428;2023-05-07T00:05:07;101678.63;;;14.79;95.97
72116;BME280;59991;52.140;5.428;2023-05-07T00:05:39;101673.91;;;14.76;95.77
72116;BME280;59991;52.140;5.428;2023-05-07T00:06:11;101682.16;;;14.76;96.38
72116;BME280;59991;52.140;5.428;2023-05-07T00:06:43;101676.25;;;14.74;95.89
72116;BME280;59991;52.140;5.428;2023-05-07T00:07:15;101677.44;;;14.73;95.44
72116;BME280;59991;52.140;5.428;2023-05-07T00:07:47;101680.56;;;14.75;95.43
72116;BME280;59991;52.140;5.428;2023-05-07T00:08:19;101680.16;;;14.73;96.05
72116;BME280;59991;52.140;5.428;2023-05-07T00:08:51;101681.34;;;14.72;96.17
72116;BME280;59991;52.140;5.428;2023-05-07T00:09:23;101678.19;;;14.70;96.43
72116;BME280;59991;52.140;5.428;2023-05-07T00:09:54;101683.69;;;14.70;95.83
72116;BME280;59991;52.140;5.428;2023-05-07T00:10:25;101680.16;;;14.70;96.60
72116;BME280;59991;52.140;5.428;2023-05-07T00:10:57;101684.06;;;14.69;96.64
72116;BME280;59991;52.140;5.428;2023-05-07T00:11:28;101683.28;;;14.68;95.96
72116;BME280;59991;52.140;5.428;2023-05-07T00:12:00;101681.31;;;14.69;95.53
72116;BME280;59991;52.140;5.428;2023-05-07T00:12:32;101686.81;;;14.69;96.23
72116;BME280;59991;52.140;5.428;2023-05-07T00:13:07;101681.31;;;14.69;95.50
72116;BME280;59991;52.140;5.428;2023-05-07T00:13:38;101680.53;;;14.68;95.59
72116;BME280;59991;52.140;5.428;2023-05-07T00:14:09;101679.34;;;14.69;96.06
72116;BME280;59991;52.140;5.428;2023-05-07T00:14:41;101680.94;;;14.70;95.86
72116;BME280;59991;52.140;5.428;2023-05-07T00:15:13;101682.50;;;14.71;95.61
72116;BME280;59991;52.140;5.428;2023-05-07T00:15:44;101678.97;;;14.71;95.12
72116;BME280;59991;52.140;5.428;2023-05-07T00:16:15;101682.50;;;14.71;94.80
72116;BME280;59991;52.140;5.428;2023-05-07T00:16:47;101684.09;;;14.72;94.98
72116;BME280;59991;52.140;5.428;2023-05-07T00:17:19;101688.78;;;14.72;95.24
72116;BME280;59991;52.140;5.428;2023-05-07T00:17:51;101680.56;;;14.72;94.71
72116;BME280;59991;52.140;5.428;2023-05-07T00:18:22;101682.50;;;14.71;94.63
72116;BME280;59991;52.140;5.428;2023-05-07T00:18:53;101681.34;;;14.72;94.62
72116;BME280;59991;52.140;5.428;2023-05-07T00:19:25;101679.75;;;14.71;94.78
72116;BME280;59991;52.140;5.428;2023-05-07T00:19:56;101685.66;;;14.73;94.62
72116;BME280;59991;52.140;5.428;2023-05-07T00:20:28;101679.38;;;14.73;93.85
72116;BME280;59991;52.140;5.428;2023-05-07T00:20:59;101677.44;;;14.73;94.10
72116;BME280;59991;52.140;5.428;2023-05-07T00:21:31;101675.47;;;14.74;93.50
72116;BME280;59991;52.140;5.428;2023-05-07T00:22:02;101680.16;;;14.73;94.57
72116;BME280;59991;52.140;5.428;2023-05-07T00:22:34;101676.63;;;14.73;94.24
72116;BME280;59991;52.140;5.428;2023-05-07T00:23:05;101677.03;;;14.71;94.96
72116;BME280;59991;52.140;5.428;2023-05-07T00:23:37;101679.75;;;14.71;94.85
72116;BME280;59991;52.140;5.428;2023-05-07T00:24:08;101679.75;;;14.71;94.47
72116;BME280;59991;52.140;5.428;2023-05-07T00:24:39;101675.44;;;14.70;94.91
72116;BME280;59991;52.140;5.428;2023-05-07T00:25:11;101678.97;;;14.71;94.57
72116;BME280;59991;52.140;5.428;2023-05-07T00:25:42;101678.97;;;14.71;93.59
72116;BME280;59991;52.140;5.428;2023-05-07T00:26:14;101674.66;;;14.70;93.71
72116;BME280;59991;52.140;5.428;2023-05-07T00:26:45;101679.75;;;14.71;93.98
72116;BME280;59991;52.140;5.428;2023-05-07T00:27:17;101677.03;;;14.71;94.70
72116;BME280;59991;52.140;5.428;2023-05-07T00:27:48;101684.47;;;14.71;94.13
72116;BME280;59991;52.140;5.428;2023-05-07T00:28:20;101673.50;;;14.71;94.84
72116;BME280;59991;52.140;5.428;2023-05-07T00:28:51;101676.22;;;14.71;94.65
72116;BME280;59991;52.140;5.428;2023-05-07T00:29:22;101678.97;;;14.71;94.13
72116;BME280;59991;52.140;5.428;2023-05-07T00:29:54;101675.44;;;14.70;95.11
72116;BME280;59991;52.140;5.428;2023-05-07T00:30:25;101677.78;;;14.68;95.69
72116;BME280;59991;52.140;5.428;2023-05-07T00:30:56;101674.25;;;14.68;94.97
72116;BME280;59991;52.140;5.428;2023-05-07T00:31:28;101672.28;;;14.65;94.88
72116;BME280;59991;52.140;5.428;2023-05-07T00:31:59;101673.06;;;14.65;94.45
72116;BME280;59991;52.140;5.428;2023-05-07T00:32:31;101672.28;;;14.65;94.09
72116;BME280;59991;52.140;5.428;2023-05-07T00:33:03;101677.75;;;14.65;94.35
72116;BME280;59991;52.140;5.428;2023-05-07T00:33:34;101674.63;;;14.66;95.11
72116;BME280;59991;52.140;5.428;2023-05-07T00:34:05;101674.22;;;14.64;95.65
72116;BME280;59991;52.140;5.428;2023-05-07T00:34:37;101671.47;;;14.64;94.94
72116;BME280;59991;52.140;5.428;2023-05-07T00:35:11;101666.78;;;14.65;95.42
72116;BME280;59991;52.140;5.428;2023-05-07T00:35:43;101676.97;;;14.64;94.87
72116;BME280;59991;52.140;5.428;2023-05-07T00:36:14;101671.09;;;14.66;94.90
72116;BME280;59991;52.140;5.428;2023-05-07T00:36:45;101665.63;;;14.66;94.30
72116;BME280;59991;52.140;5.428;2023-05-07T00:37:17;101666.78;;;14.65;94.63
72116;BME280;59991;52.140;5.428;2023-05-07T00:37:48;101670.31;;;14.65;93.87
72116;BME280;59991;52.140;5.428;2023-05-07T00:38:20;101666.41;;;14.66;93.77
72116;BME280;59991;52.140;5.428;2023-05-07T00:38:53;101665.63;;;14.66;94.01
72116;BME280;59991;52.140;5.428;2023-05-07T00:39:25;101665.63;;;14.66;93.98
72116;BME280;59991;52.140;5.428;2023-05-07T00:39:56;101668.34;;;14.66;94.46
72116;BME280;59991;52.140;5.428;2023-05-07T00:40:28;101663.25;;;14.64;94.41
72116;BME280;59991;52.140;5.428;2023-05-07T00:40:59;101662.47;;;14.64;94.51
72116;BME280;59991;52.140;5.428;2023-05-07T00:41:31;101664.41;;;14.63;94.47
72116;BME280;59991;52.140;5.428;2023-05-07T00:42:02;101664.41;;;14.63;93.37
72116;BME280;59991;52.140;5.428;2023-05-07T00:42:34;101662.47;;;14.64;94.01
72116;BME280;59991;52.140;5.428;2023-05-07T00:43:05;101661.66;;;14.63;94.30
72116;BME280;59991;52.140;5.428;2023-05-07T00:43:37;101656.19;;;14.63;94.39
72116;BME280;59991;52.140;5.428;2023-05-07T00:44:09;101660.50;;;14.64;93.96
72116;BME280;59991;52.140;5.428;2023-05-07T00:44:41;101658.94;;;14.63;93.90
72116;BME280;59991;52.140;5.428;2023-05-07T00:45:13;101660.88;;;14.63;94.34
72116;BME280;59991;52.140;5.428;2023-05-07T00:45:46;101663.63;;;14.63;93.91
72116;BME280;59991;52.140;5.428;2023-05-07T00:46:20;101653.06;;;14.61;93.55
72116;BME280;59991;52.140;5.428;2023-05-07T00:46:53;101660.50;;;14.61;93.91
72116;BME280;59991;52.140;5.428;2023-05-07T00:47:25;101653.44;;;14.60;94.03
72116;BME280;59991;52.140;5.428;2023-05-07T00:47:59;101658.56;;;14.61;94.02
72116;BME280;59991;52.140;5.428;2023-05-07T00:48:31;101652.66;;;14.59;94.68
72116;BME280;59991;52.140;5.428;2023-05-07T00:49:03;101661.28;;;14.58;95.64
72116;BME280;59991;52.140;5.428;2023-05-07T00:49:41;101662.41;;;14.53;95.52
72116;BME280;59991;52.140;5.428;2023-05-07T00:50:13;101655.75;;;14.50;95.92
72116;BME280;59991;52.140;5.428;2023-05-07T00:50:45;101658.88;;;14.49;95.96
72116;BME280;59991;52.140;5.428;2023-05-07T00:51:18;101652.59;;;14.48;95.60
72116;BME280;59991;52.140;5.428;2023-05-07T00:51:50;101660.81;;;14.48;95.38
72116;BME280;59991;52.140;5.428;2023-05-07T00:52:24;101660.03;;;14.48;94.97
72116;BME280;59991;52.140;5.428;2023-05-07T00:52:57;101656.13;;;14.49;95.02
72116;BME280;59991;52.140;5.428;2023-05-07T00:53:28;101643.97;;;14.50;95.02
72116;BME280;59991;52.140;5.428;2023-05-07T00:54:02;101653.00;;;14.50;95.33
72116;BME280;59991;52.140;5.428;2023-05-07T00:54:34;101653.00;;;14.50;95.49
72116;BME280;59991;52.140;5.428;2023-05-07T00:55:06;101657.31;;;14.51;94.91
72116;BME280;59991;52.140;5.428;2023-05-07T00:55:39;101653.78;;;14.51;94.54
72116;BME280;59991;52.140;5.428;2023-05-07T00:56:11;101654.56;;;14.51;95.02
72116;BME280;59991;52.140;5.428;2023-05-07T00:56:43;101651.81;;;14.51;95.13
72116;BME280;59991;52.140;5.428;2023-05-07T00:57:16;101658.06;;;14.48;95.02
72116;BME280;59991;52.140;5.428;2023-05-07T00:57:47;101651.41;;;14.49;95.00
72116;BME280;59991;52.140;5.428;2023-05-07T00:58:19;101652.59;;;14.48;94.87
72116;BME280;59991;52.140;5.428;2023-05-07T00:58:51;101659.66;;;14.49;95.29
72116;BME280;59991;52.140;5.428;2023-05-07T00:59:23;101655.34;;;14.48;94.78
72116;BME280;59991;52.140;5.428;2023-05-07T00:59:54;101656.13;;;14.49;94.57
72116;BME280;59991;52.140;5.428;2023-05-07T01:00:26;101659.66;;;14.49;94.76
72116;BME280;59991;52.140;5.428;2023-05-07T01:00:58;101653.00;;;14.50;95.27
72116;BME280;59991;52.140;5.428;2023-05-07T01:01:29;101650.25;;;14.50;94.93
72116;BME280;59991;52.140;5.428;2023-05-07T01:02:02;101655.75;;;14.50;94.87
72116;BME280;59991;52.140;5.428;2023-05-07T01:02:35;101650.25;;;14.50;94.64
72116;BME280;59991;52.140;5.428;2023-05-07T01:03:07;101651.81;;;14.51;94.81
72116;BME280;59991;52.140;5.428;2023-05-07T01:03:39;101659.28;;;14.51;95.00
72116;BME280;59991;52.140;5.428;2023-05-07T01:04:11;101650.25;;;14.50;94.61
72116;BME280;59991;52.140;5.428;2023-05-07T01:04:43;101654.56;;;14.51;94.89
72116;BME280;59991;52.140;5.428;2023-05-07T01:05:17;101653.78;;;14.51;95.05
72116;BME280;59991;52.140;5.428;2023-05-07T01:05:50;101651.03;;;14.51;94.60
72116;BME280;59991;52.140;5.428;2023-05-07T01:06:25;101651.03;;;14.51;95.01
72116;BME280;59991;52.140;5.428;2023-05-07T01:07:00;101650.25;;;14.50;95.13
72116;BME280;59991;52.140;5.428;2023-05-07T01:07:34;101654.16;;;14.49;94.52
72116;BME280;59991;52.140;5.428;2023-05-07T01:08:07;101648.69;;;14.49;94.85
72116;BME280;59991;52.140;5.428;2023-05-07T01:08:39;101648.69;;;14.49;95.08
72116;BME280;59991;52.140;5.428;2023-05-07T01:09:11;101649.84;;;14.48;94.47
72116;BME280;59991;52.140;5.428;2023-05-07T01:09:43;101647.88;;;14.49;94.73
72116;BME280;59991;52.140;5.428;2023-05-07T01:10:15;101645.13;;;14.49;94.75
72116;BME280;59991;52.140;5.428;2023-05-07T01:10:48;101645.53;;;14.47;95.22
72116;BME280;59991;52.140;5.428;2023-05-07T01:11:20;101646.69;;;14.46;95.53
72116;BME280;59991;52.140;5.428;2023-05-07T01:11:53;101649.81;;;14.45;96.11
72116;BME280;59991;52.140;5.428;2023-05-07T01:12:26;101649.44;;;14.43;96.56
72116;BME280;59991;52.140;5.428;2023-05-07T01:12:59;101649.03;;;14.41;96.49
72116;BME280;59991;52.140;5.428;2023-05-07T01:13:32;101656.47;;;14.40;96.60
72116;BME280;59991;52.140;5.428;2023-05-07T01:14:04;101642.31;;;14.38;95.63
72116;BME280;59991;52.140;5.428;2023-05-07T01:14:36;101643.09;;;14.39;95.29
72116;BME280;59991;52.140;5.428;2023-05-07T01:15:08;101645.06;;;14.38;95.66
72116;BME280;59991;52.140;5.428;2023-05-07T01:15:40;101643.09;;;14.39;95.41
72116;BME280;59991;52.140;5.428;2023-05-07T01:16:12;101650.16;;;14.40;95.40
72116;BME280;59991;52.140;5.428;2023-05-07T01:16:44;101647.81;;;14.38;94.03
72116;BME280;59991;52.140;5.428;2023-05-07T01:17:16;101648.59;;;14.39;94.67
72116;BME280;59991;52.140;5.428;2023-05-07T01:17:48;101649.03;;;14.41;95.06
72116;BME280;59991;52.140;5.428;2023-05-07T01:18:19;101645.50;;;14.40;95.13
72116;BME280;59991;52.140;5.428;2023-05-07T01:18:51;101649.38;;;14.39;94.75
72116;BME280;59991;52.140;5.428;2023-05-07T01:19:23;101647.06;;;14.41;94.99
72116;BME280;59991;52.140;5.428;2023-05-07T01:19:54;101645.13;;;14.42;95.25
72116;BME280;59991;52.140;5.428;2023-05-07T01:20:27;101651.41;;;14.42;94.59
72116;BME280;59991;52.140;5.428;2023-05-07T01:20:59;101648.66;;;14.42;95.39
72116;BME280;59991;52.140;5.428;2023-05-07T01:21:33;101654.16;;;14.42;94.71
72116;BME280;59991;52.140;5.428;2023-05-07T01:22:09;101655.31;;;14.41;93.93
72116;BME280;59991;52.140;5.428;2023-05-07T01:22:42;101651.41;;;14.42;94.28
72116;BME280;59991;52.140;5.428;2023-05-07T01:23:15;101650.59;;;14.42;94.41
72116;BME280;59991;52.140;5.428;2023-05-07T01:23:47;101654.16;;;14.42;94.61
72116;BME280;59991;52.140;5.428;2023-05-07T01:24:18;101650.59;;;14.42;94.41
72116;BME280;59991;52.140;5.428;2023-05-07T01:24:50;101655.69;;;14.43;94.71
72116;BME280;59991;52.140;5.428;2023-05-07T01:25:21;101649.44;;;14.43;94.81
72116;BME280;59991;52.140;5.428;2023-05-07T01:25:54;101657.69;;;14.43;94.82
72116;BME280;59991;52.140;5.428;2023-05-07T01:26:25;101646.69;;;14.43;94.99
72116;BME280;59991;52.140;5.428;2023-05-07T01:26:57;101649.44;;;14.43;94.90
72116;BME280;59991;52.140;5.428;2023-05-07T01:27:28;101653.72;;;14.44;95.06
72116;BME280;59991;52.140;5.428;2023-05-07T01:28:00;101647.44;;;14.43;93.98
72116;BME280;59991;52.140;5.428;2023-05-07T01:28:32;101650.19;;;14.43;93.98
72116;BME280;59991;52.140;5.428;2023-05-07T01:29:03;101643.97;;;14.43;94.28
72116;BME280;59991;52.140;5.428;2023-05-07T01:29:35;101649.03;;;14.44;94.84
72116;BME280;59991;52.140;5.428;2023-05-07T01:30:07;101643.16;;;14.42;94.75
72116;BME280;59991;52.140;5.428;2023-05-07T01:30:41;101643.97;;;14.43;95.65
72116;BME280;59991;52.140;5.428;2023-05-07T01:31:16;101651.41;;;14.42;94.99
72116;BME280;59991;52.140;5.428;2023-05-07T01:31:50;101662.38;;;14.42;94.87
72116;BME280;59991;52.140;5.428;2023-05-07T01:32:28;101651.00;;;14.40;94.53
72116;BME280;59991;52.140;5.428;2023-05-07T01:33:07;101657.25;;;14.41;94.78
72116;BME280;59991;52.140;5.428;2023-05-07T01:33:40;101652.56;;;14.41;94.87
72116;BME280;59991;52.140;5.428;2023-05-07T01:34:14;101648.25;;;14.40;95.49
72116;BME280;59991;52.140;5.428;2023-05-07T01:34:47;101649.38;;;14.39;95.69
72116;BME280;59991;52.140;5.428;2023-05-07T01:35:33;101657.22;;;14.37;96.01
72116;BME280;59991;52.140;5.428;2023-05-07T01:36:06;101652.09;;;14.36;96.08
72116;BME280;59991;52.140;5.428;2023-05-07T01:36:40;101661.13;;;14.36;95.37
72116;BME280;59991;52.140;5.428;2023-05-07T01:37:14;101651.72;;;14.37;95.02
72116;BME280;59991;52.140;5.428;2023-05-07T01:37:47;101654.84;;;14.36;95.09
72116;BME280;59991;52.140;5.428;2023-05-07T01:38:20;101652.50;;;14.38;95.75
72116;BME280;59991;52.140;5.428;2023-05-07T01:38:53;101656.41;;;14.37;95.27
72116;BME280;59991;52.140;5.428;2023-05-07T01:39:25;101655.25;;;14.38;95.04
72116;BME280;59991;52.140;5.428;2023-05-07T01:39:57;101658.00;;;14.38;95.14
72116;BME280;59991;52.140;5.428;2023-05-07T01:40:28;101658.00;;;14.38;94.91
72116;BME280;59991;52.140;5.428;2023-05-07T01:41:00;101650.56;;;14.38;94.49
72116;BME280;59991;52.140;5.428;2023-05-07T01:41:32;101660.75;;;14.38;94.83
72116;BME280;59991;52.140;5.428;2023-05-07T01:42:04;101658.78;;;14.38;94.89
72116;BME280;59991;52.140;5.428;2023-05-07T01:42:35;101656.03;;;14.38;94.54
72116;BME280;59991;52.140;5.428;2023-05-07T01:43:07;101654.88;;;14.39;95.22
72116;BME280;59991;52.140;5.428;2023-05-07T01:43:41;101649.38;;;14.39;95.11
72116;BME280;59991;52.140;5.428;2023-05-07T01:44:13;101651.34;;;14.39;94.95
72116;BME280;59991;52.140;5.428;2023-05-07T01:44:46;101650.16;;;14.40;94.79
72116;BME280;59991;52.140;5.428;2023-05-07T01:45:17;101644.69;;;14.40;95.85
72116;BME280;59991;52.140;5.428;2023-05-07T01:45:49;101648.25;;;14.40;95.11
72116;BME280;59991;52.140;5.428;2023-05-07T01:46:21;101645.50;;;14.40;95.30
72116;BME280;59991;52.140;5.428;2023-05-07T01:46:53;101646.28;;;14.41;95.30
72116;BME280;59991;52.140;5.428;2023-05-07T01:47:26;101652.13;;;14.39;95.71
72116;BME280;59991;52.140;5.428;2023-05-07T01:47:58;101651.00;;;14.40;95.62
72116;BME280;59991;52.140;5.428;2023-05-07T01:48:30;101651.78;;;14.41;95.94
72116;BME280;59991;52.140;5.428;2023-05-07T01:49:03;101650.16;;;14.40;95.54
72116;BME280;59991;52.140;5.428;2023-05-07T01:49:35;101660.38;;;14.39;95.48
72116;BME280;59991;52.140;5.428;2023-05-07T01:50:07;101647.44;;;14.40;94.87
72116;BME280;59991;52.140;5.428;2023-05-07T01:50:43;101654.88;;;14.39;94.95
72116;BME280;59991;52.140;5.428;2023-05-07T01:51:15;101651.00;;;14.40;95.39
72116;BME280;59991;52.140;5.428;2023-05-07T01:51:47;101655.66;;;14.40;95.04
72116;BME280;59991;52.140;5.428;2023-05-07T01:52:19;101657.25;;;14.41;95.14
72116;BME280;59991;52.140;5.428;2023-05-07T01:52:51;101661.97;;;14.40;95.33
72116;BME280;59991;52.140;5.428;2023-05-07T01:53:23;101648.25;;;14.40;95.11
72116;BME280;59991;52.140;5.428;2023-05-07T01:53:54;101654.53;;;14.41;94.97
72116;BME280;59991;52.140;5.428;2023-05-07T01:54:27;101649.03;;;14.41;95.08
72116;BME280;59991;52.140;5.428;2023-05-07T01:55:01;101656.47;;;14.40;95.33
72116;BME280;59991;52.140;5.428;2023-05-07T01:55:33;101651.78;;;14.41;95.20
72116;BME280;59991;52.140;5.428;2023-05-07T01:56:05;101656.47;;;14.40;94.92
72116;BME280;59991;52.140;5.428;2023-05-07T01:56:36;101653.72;;;14.40;94.87
72116;BME280;59991;52.140;5.428;2023-05-07T01:57:08;101656.47;;;14.40;94.93
72116;BME280;59991;52.140;5.428;2023-05-07T01:57:39;101651.00;;;14.40;94.88
72116;BME280;59991;52.140;5.428;2023-05-07T01:58:11;101650.16;;;14.40;95.21
72116;BME280;59991;52.140;5.428;2023-05-07T01:58:42;101653.72;;;14.40;95.57
72116;BME280;59991;52.140;5.428;2023-05-07T01:59:14;101659.22;;;14.40;95.92
72116;BME280;59991;52.140;5.428;2023-05-07T01:59:45;101649.38;;;14.39;95.49
72116;BME280;59991;52.140;5.428;2023-05-07T02:00:17;101650.16;;;14.40;95.88
72116;BME280;59991;52.140;5.428;2023-05-07T02:00:50;101652.13;;;14.39;95.75
72116;BME280;59991;52.140;5.428;2023-05-07T02:01:21;101650.16;;;14.40;95.13
72116;BME280;59991;52.140;5.428;2023-05-07T02:01:53;101652.13;;;14.39;95.73
72116;BME280;59991;52.140;5.428;2023-05-07T02:02:25;101648.59;;;14.39;95.39
72116;BME280;59991;52.140;5.428;2023-05-07T02:02:57;101650.16;;;14.40;95.71
72116;BME280;59991;52.140;5.428;2023-05-07T02:03:29;101645.84;;;14.39;95.38
72116;BME280;59991;52.140;5.428;2023-05-07T02:04:00;101652.13;;;14.39;95.70
72116;BME280;59991;52.140;5.428;2023-05-07T02:04:32;101651.00;;;14.40;95.94
72116;BME280;59991;52.140;5.428;2023-05-07T02:05:04;101646.63;;;14.39;95.37
72116;BME280;59991;52.140;5.428;2023-05-07T02:05:35;101648.97;;;14.37;95.04
72116;BME280;59991;52.140;5.428;2023-05-07T02:06:07;101648.59;;;14.39;95.34
72116;BME280;59991;52.140;5.428;2023-05-07T02:06:38;101648.59;;;14.39;95.84
72116;BME280;59991;52.140;5.428;2023-05-07T02:07:10;101652.13;;;14.39;95.18
72116;BME280;59991;52.140;5.428;2023-05-07T02:07:41;101656.03;;;14.38;95.21
72116;BME280;59991;52.140;5.428;2023-05-07T02:08:13;101652.50;;;14.38;95.17
72116;BME280;59991;52.140;5.428;2023-05-07T02:08:44;101652.50;;;14.38;94.92
72116;BME280;59991;52.140;5.428;2023-05-07T02:09:16;101651.72;;;14.37;94.27
72116;BME280;59991;52.140;5.428;2023-05-07T02:09:49;101656.03;;;14.38;94.67
72116;BME280;59991;52.140;5.428;2023-05-07T02:10:20;101643.50;;;14.37;94.46
72116;BME280;59991;52.140;5.428;2023-05-07T02:10:52;101650.56;;;14.38;95.05
72116;BME280;59991;52.140;5.428;2023-05-07T02:11:25;101647.03;;;14.38;95.50
72116;BME280;59991;52.140;5.428;2023-05-07T02:11:56;101649.78;;;14.38;95.50
72116;BME280;59991;52.140;5.428;2023-05-07T02:12:28;101653.28;;;14.38;95.77
72116;BME280;59991;52.140;5.428;2023-05-07T02:12:59;101653.69;;;14.37;95.88
72116;BME280;59991;52.140;5.428;2023-05-07T02:13:33;101655.63;;;14.36;95.43
72116;BME280;59991;52.140;5.428;2023-05-07T02:14:08;101656.41;;;14.37;95.84
72116;BME280;59991;52.140;5.428;2023-05-07T02:14:39;101657.59;;;14.36;95.75
72116;BME280;59991;52.140;5.428;2023-05-07T02:15:10;101658.75;;;14.35;95.28
72116;BME280;59991;52.140;5.428;2023-05-07T02:15:42;101659.53;;;14.35;95.53
72116;BME280;59991;52.140;5.428;2023-05-07T02:16:14;101656.81;;;14.35;96.02
72116;BME280;59991;52.140;5.428;2023-05-07T02:16:45;101658.75;;;14.35;96.00
72116;BME280;59991;52.140;5.428;2023-05-07T02:17:17;101661.13;;;14.36;95.71
72116;BME280;59991;52.140;5.428;2023-05-07T02:17:59;101657.59;;;14.36;95.36
72116;BME280;59991;52.140;5.428;2023-05-07T02:18:31;101653.28;;;14.35;95.14
72116;BME280;59991;52.140;5.428;2023-05-07T02:19:03;101660.34;;;14.36;95.89
72116;BME280;59991;52.140;5.428;2023-05-07T02:19:34;101659.53;;;14.35;96.21
72116;BME280;59991;52.140;5.428;2023-05-07T02:20:06;101654.06;;;14.35;96.08
72116;BME280;59991;52.140;5.428;2023-05-07T02:20:44;101657.19;;;14.34;96.64
72116;BME280;59991;52.140;5.428;2023-05-07T02:21:15;101655.59;;;14.33;96.06
72116;BME280;59991;52.140;5.428;2023-05-07T02:21:47;101656.00;;;14.31;96.22
72116;BME280;59991;52.140;5.428;2023-05-07T02:22:19;101653.25;;;14.31;96.11
72116;BME280;59991;52.140;5.428;2023-05-07T02:22:50;101651.28;;;14.32;95.95
72116;BME280;59991;52.140;5.428;2023-05-07T02:23:21;101655.59;;;14.33;95.49
72116;BME280;59991;52.140;5.428;2023-05-07T02:23:53;101656.41;;;14.33;95.92
72116;BME280;59991;52.140;5.428;2023-05-07T02:24:24;101657.19;;;14.34;95.81
72116;BME280;59991;52.140;5.428;2023-05-07T02:24:56;101650.91;;;14.33;95.92
72116;BME280;59991;52.140;5.428;2023-05-07T02:25:27;101648.16;;;14.33;96.18
72116;BME280;59991;52.140;5.428;2023-05-07T02:25:58;101647.00;;;14.34;96.48
72116;BME280;59991;52.140;5.428;2023-05-07T02:26:30;101650.91;;;14.33;96.15
72116;BME280;59991;52.140;5.428;2023-05-07T02:27:02;101649.75;;;14.34;96.35
72116;BME280;59991;52.140;5.428;2023-05-07T02:27:34;101649.75;;;14.34;95.79
72116;BME280;59991;52.140;5.428;2023-05-07T02:28:05;101651.69;;;14.34;95.77
72116;BME280;59991;52.140;5.428;2023-05-07T02:28:37;101653.28;;;14.35;95.72
72116;BME280;59991;52.140;5.428;2023-05-07T02:29:08;101650.91;;;14.33;96.45
72116;BME280;59991;52.140;5.428;2023-05-07T02:29:40;101647.00;;;14.34;96.14
72116;BME280;59991;52.140;5.428;2023-05-07T02:30:11;101653.28;;;14.35;96.00
72116;BME280;59991;52.140;5.428;2023-05-07T02:30:43;101653.28;;;14.35;96.23
72116;BME280;59991;52.140;5.428;2023-05-07T02:31:15;101652.47;;;14.34;96.63
72116;BME280;59991;52.140;5.428;2023-05-07T02:31:46;101648.16;;;14.33;96.28
72116;BME280;59991;52.140;5.428;2023-05-07T02:32:21;101652.47;;;14.34;96.72
72116;BME280;59991;52.140;5.428;2023-05-07T02:32:54;101650.91;;;14.33;96.41
72116;BME280;59991;52.140;5.428;2023-05-07T02:33:26;101650.91;;;14.33;96.16
72116;BME280;59991;52.140;5.428;2023-05-07T02:33:57;101640.31;;;14.32;96.27
72116;BME280;59991;52.140;5.428;2023-05-07T02:34:29;101647.38;;;14.33;96.56
72116;BME280;59991;52.140;5.428;2023-05-07T02:35:00;101649.34;;;14.32;96.59
72116;BME280;59991;52.140;5.428;2023-05-07T02:35:32;101650.91;;;14.33;96.60
72116;BME280;59991;52.140;5.428;2023-05-07T02:36:10;101652.88;;;14.33;96.78
72116;BME280;59991;52.140;5.428;2023-05-07T02:36:41;101656.41;;;14.33;97.12
72116;BME280;59991;52.140;5.428;2023-05-07T02:37:13;101650.91;;;14.33;96.70
72116;BME280;59991;52.140;5.428;2023-05-07T02:37:44;101656.41;;;14.33;96.93
72116;BME280;59991;52.140;5.428;2023-05-07T02:38:16;101654.03;;;14.32;96.23
72116;BME280;59991;52.140;5.428;2023-05-07T02:38:47;101654.81;;;14.32;96.08
72116;BME280;59991;52.140;5.428;2023-05-07T02:39:19;101658.72;;;14.31;96.19
72116;BME280;59991;52.140;5.428;2023-05-07T02:39:50;101656.41;;;14.33;95.98
72116;BME280;59991;52.140;5.428;2023-05-07T02:40:22;101658.72;;;14.31;95.76
72116;BME280;59991;52.140;5.428;2023-05-07T02:40:53;101658.72;;;14.31;95.57
72116;BME280;59991;52.140;5.428;2023-05-07T02:41:25;101655.59;;;14.33;95.80
72116;BME280;59991;52.140;5.428;2023-05-07T02:41:56;101654.81;;;14.32;95.61
72116;BME280;59991;52.140;5.428;2023-05-07T02:42:28;101663.06;;;14.32;95.88
72116;BME280;59991;52.140;5.428;2023-05-07T02:42:59;101649.34;;;14.32;96.12
72116;BME280;59991;52.140;5.428;2023-05-07T02:43:31;101653.25;;;14.31;95.97
72116;BME280;59991;52.140;5.428;2023-05-07T02:44:02;101655.59;;;14.33;96.71
72116;BME280;59991;52.140;5.428;2023-05-07T02:44:34;101657.56;;;14.32;97.12
72116;BME280;59991;52.140;5.428;2023-05-07T02:45:07;101654.81;;;14.32;97.03
72116;BME280;59991;52.140;5.428;2023-05-07T02:45:38;101651.69;;;14.34;97.34
72116;BME280;59991;52.140;5.428;2023-05-07T02:46:10;101659.13;;;14.33;97.01
72116;BME280;59991;52.140;5.428;2023-05-07T02:46:41;101649.34;;;14.32;97.45
72116;BME280;59991;52.140;5.428;2023-05-07T02:47:14;101654.03;;;14.32;96.93
72116;BME280;59991;52.140;5.428;2023-05-07T02:47:46;101649.34;;;14.32;97.36
72116;BME280;59991;52.140;5.428;2023-05-07T02:48:18;101654.03;;;14.32;97.28